• Join FlightAware (Why Join?)
  • Login
  • US Flag 
07:29AM EDT


 

Airport Tracker/Info


-or-


 

Live Flight TrackerFlight Track Log ✈ AWE1092 ✈ 16-Apr-2013 ✈ KMHT - KPHL

Flight Track Log - Related Links

Times and Time Zones

All times are in EDT time to prevent confusion due to time zone crossing. See the AWE1092 flight status page for this flight to view local times or setup timezone preferences in your user account.

Time Position Orientation Groundspeed Altitude Reporting Facility
EDT Latitude Longitude Course Direction KTS MPH feet Rate Location/Type
07:05AM 42.9500 -71.4167 273° West 164 189 900  Level KA90
07:07AM 43.0167 -71.3833 20° North 235 270 2,900 1,860 Climbing KA90
07:08AM 42.9401 -71.8403 283° West  Level FlightAware Approximate
07:09AM 42.9500 -71.9754 270° West  Level FlightAware Approximate
07:09AM 43.1006 -71.4478 331° Northwest 261 300 6,800  Level Boston Center
07:10AM 42.9501 -72.1120 270° West  Level FlightAware Approximate
07:10AM 43.1242 -71.5469 288° West 256 295 10,300  Level Boston Center
07:11AM 42.9514 -72.2486 273° West  Level FlightAware Approximate
07:11AM 43.1019 -71.6383 252° West 263 303 11,600  Level Boston Center
07:12AM 43.0694 -71.7636 250° West 315 362 14,700 2,580 Climbing Boston Center
07:13AM 43.0431 -71.8747 252° West 338 389 16,800 2,100 Climbing Boston Center
07:14AM 43.0061 -72.0086 249° West 343 395 19,000 1,560 Climbing Boston Center
07:15AM 42.9731 -72.1364 251° West 353 406 20,000 480 Climbing Boston Center
07:16AM 42.9381 -72.2642 250° West 358 412 20,000  Level Boston Center
07:17AM 42.9111 -72.3947 254° West 363 418 20,000  Level Boston Center
07:18AM 42.8756 -72.5222 249° West 368 423 20,000  Level Boston Center
07:19AM 42.8378 -72.6383 246° West 368 423 20,000  Level Boston Center
07:20AM 42.8000 -72.7656 248° West 369 425 20,000  Level Boston Center
07:21AM 42.7664 -72.8953 251° West 369 425 20,000  Level Boston Center
07:22AM 42.7303 -73.0422 252° West 378 435 20,000  Level Boston Center
07:23AM 42.6919 -73.1717 248° West 385 443 20,000  Level Boston Center
07:24AM 42.6575 -73.3039 251° West 380 437 20,000  Level Boston Center
07:25AM 42.6275 -73.4081 249° West 375 432 20,000  Level Boston Center
07:26AM 42.5867 -73.5483 248° West 370 426 20,000  Level Boston Center
07:27AM 42.5519 -73.6775 250° West 370 426 20,000  Level Boston Center
07:28AM 42.5153 -73.8033 248° West 370 426 20,000  Level Boston Center
07:29AM 42.4803 -73.9264 249° West 365 420 20,000  Level Boston Center
07:30AM 42.4386 -74.0747 249° West 365 420 20,000  Level Boston Center
07:31AM 42.4014 -74.2003 248° West 365 420 20,000  Level Boston Center
07:32AM 42.3681 -74.3228 250° West 365 420 20,000  Level Boston Center
07:33AM 42.3264 -74.4481 246° West 365 420 20,000  Level Boston Center
07:34AM 42.2928 -74.5733 250° West 365 420 20,000 -240 Level Boston Center
07:36AM 42.1942 -74.8044 240° Southwest 342 394 19,300 -360 Descending New York Center
07:37AM 42.1264 -74.9008 227° Southwest 348 400 19,000 -180 Descending New York Center
07:38AM 42.0583 -75.0028 228° Southwest 363 418 19,000  Level New York Center
07:39AM 41.9903 -75.0989 226° Southwest 369 425 19,000  Level New York Center
07:40AM 41.9122 -75.1800 218° Southwest 358 412 19,000 -120 Level New York Center
07:41AM 41.8331 -75.2417 210° Southwest 368 423 18,800 -1,020 Descending New York Center
07:42AM 41.7383 -75.3186 211° Southwest 373 429 17,000 -1,800 Descending New York Center
07:43AM 41.6544 -75.3878 212° Southwest 373 429 15,300 -1,740 Descending New York Center
07:44AM 41.5728 -75.4517 210° Southwest 367 422 13,600 -1,680 Descending New York Center
07:45AM 41.4997 -75.5103 211° Southwest 355 409 12,000 -900 Descending New York Center
07:46AM 41.4203 -75.5736 211° Southwest 342 394 11,900 -60 Descending New York Center
07:47AM 41.3383 -75.6369 210° Southwest 342 394 11,900  Level New York Center
07:48AM 41.2425 -75.6881 202° Southwest 347 399 11,900 -600 Level New York Center
07:49AM 41.1475 -75.6700 172° South 343 395 10,700 -1,020 Descending New York Center
07:50AM 41.0572 -75.6386 165° South 348 400 9,900 -360 Descending New York Center
07:51AM 40.9750 -75.6108 166° South 342 394 10,000  Climbing New York Center
07:52AM 40.8844 -75.5797 165° South 342 394 10,000  Level New York Center
07:53AM 40.7797 -75.5450 166° South 348 400 10,000  Level New York Center
07:54AM 40.6872 -75.5111 164° South 354 407 10,000  Level New York Center
07:54AM 40.6211 -75.4906 167° South 330 380 10,000  Level FAA TRACON SMA TRACON (SMA)
07:55AM 40.5967 -75.4831 167° South 300 345 10,000  Level FAA TRACON SMA TRACON (SMA)
07:55AM 40.5664 -75.4697 162° South 301 346 10,000  Level FAA TRACON SMA TRACON (SMA)
07:55AM 40.5411 -75.4636 170° South 300 345 10,000  Level FAA TRACON SMA TRACON (SMA)
07:56AM 40.5161 -75.4558 167° South 298 343 10,000  Level FAA TRACON SMA TRACON (SMA)
07:56AM 40.4917 -75.4467 164° South 298 343 10,000  Level FAA TRACON SMA TRACON (SMA)
07:56AM 40.4606 -75.4358 165° South 298 343 10,000  Level FAA TRACON SMA TRACON (SMA)
07:57AM 40.4364 -75.4261 163° South 298 343 10,000  Level FAA TRACON SMA TRACON (SMA)
07:57AM 40.4128 -75.4111 154° Southeast 300 345 10,000 -780 Level FAA TRACON SMA TRACON (SMA)
07:57AM 40.3847 -75.3939 155° Southeast 297 342 9,500 -1,200 Descending FAA TRACON SMA TRACON (SMA)
07:58AM 40.3631 -75.3800 154° Southeast 292 336 9,200 -900 Descending FAA TRACON SMA TRACON (SMA)
07:58AM 40.3350 -75.3653 158° South 275 316 8,900 -1,080 Descending FAA TRACON SMA TRACON (SMA)
07:58AM 40.3142 -75.3533 156° South 266 306 8,500 -1,380 Descending FAA TRACON SMA TRACON (SMA)
07:59AM 40.2933 -75.3411 156° South 264 304 8,000 -1,500 Descending FAA TRACON SMA TRACON (SMA)
07:59AM 40.2731 -75.3300 157° South 262 302 7,500 -1,500 Descending FAA TRACON SMA TRACON (SMA)
07:59AM 40.2478 -75.3344 188° South 254 292 7,000 -780 Descending FAA TRACON SMA TRACON (SMA)
08:00AM 40.2261 -75.3447 200° South 248 285 7,000  Level FAA TRACON SMA TRACON (SMA)
08:00AM 40.2008 -75.3572 201° Southwest 251 289 7,000  Level FAA TRACON SMA TRACON (SMA)
08:00AM 40.1803 -75.3681 202° Southwest 252 290 7,000  Level FAA TRACON SMA TRACON (SMA)
08:01AM 40.1603 -75.3767 198° South 251 289 7,000  Level FAA TRACON SMA TRACON (SMA)
08:01AM 40.1358 -75.3878 199° South 251 289 7,000 -300 Level FAA TRACON SMA TRACON (SMA)
08:01AM 40.1144 -75.3983 201° Southwest 252 290 6,800 -780 Descending FAA TRACON SMA TRACON (SMA)
08:02AM 40.0944 -75.4078 200° South 251 289 6,500 -1,080 Descending FAA TRACON SMA TRACON (SMA)
08:02AM 40.0694 -75.4197 200° South 248 285 6,100 -780 Descending FAA TRACON SMA TRACON (SMA)
08:02AM 40.0478 -75.4158 172° South 254 292 6,000 -180 Descending FAA TRACON SMA TRACON (SMA)
08:03AM 40.0272 -75.4092 166° South 245 282 6,000  Level FAA TRACON SMA TRACON (SMA)
08:03AM 40.0011 -75.4008 166° South 250 288 6,000  Level FAA TRACON SMA TRACON (SMA)
08:03AM 39.9808 -75.3944 166° South 246 283 6,000  Level FAA TRACON SMA TRACON (SMA)
08:04AM 39.9625 -75.3892 168° South 228 262 6,000  Level FAA TRACON SMA TRACON (SMA)
08:04AM 39.9431 -75.3953 194° South 181 208 6,000  Level FAA TRACON SMA TRACON (SMA)
08:04AM 39.9322 -75.4078 222° Southwest 160 184 6,000  Level FAA TRACON SMA TRACON (SMA)
08:05AM 39.9258 -75.4244 243° Southwest 165 190 6,000 -180 Level FAA TRACON SMA TRACON (SMA)
08:05AM 39.9200 -75.4472 252° West 172 198 5,900 -600 Descending FAA TRACON SMA TRACON (SMA)
08:05AM 39.9161 -75.4650 254° West 170 196 5,600 -1,080 Descending FAA TRACON SMA TRACON (SMA)
08:06AM 39.9119 -75.4833 254° West 170 196 5,200 -900 Descending FAA TRACON SMA TRACON (SMA)
08:06AM 39.9064 -75.5058 252° West 169 194 5,000 -300 Descending FAA TRACON SMA TRACON (SMA)
08:06AM 39.9022 -75.5231 253° West 169 194 5,000  Level FAA TRACON SMA TRACON (SMA)
08:07AM 39.8986 -75.5422 256° West 170 196 5,000  Level FAA TRACON SMA TRACON (SMA)
08:07AM 39.8936 -75.5644 254° West 170 196 5,000  Level FAA TRACON SMA TRACON (SMA)
08:07AM 39.8900 -75.5836 256° West 170 196 5,000  Level FAA TRACON SMA TRACON (SMA)
08:08AM 39.8861 -75.6022 255° West 171 197 5,000  Level FAA TRACON SMA TRACON (SMA)
08:08AM 39.8800 -75.6242 250° West 171 197 5,000  Level FAA TRACON SMA TRACON (SMA)
08:08AM 39.8669 -75.6297 198° South 177 204 5,000  Level FAA TRACON SMA TRACON (SMA)
08:09AM 39.8503 -75.6225 162° South 169 194 5,000 -300 Level FAA TRACON SMA TRACON (SMA)
08:09AM 39.8358 -75.6169 164° South 171 197 4,800 -900 Descending FAA TRACON SMA TRACON (SMA)
08:09AM 39.8247 -75.6058 142° Southeast 177 204 4,400 -1,200 Descending FAA TRACON SMA TRACON (SMA)
08:10AM 39.8211 -75.5811 101° East 180 207 4,000 -600 Descending FAA TRACON SMA TRACON (SMA)
08:10AM 39.8183 -75.5597 100° East 187 215 4,000 -660 Level FAA TRACON SMA TRACON (SMA)
08:10AM 39.8161 -75.5392 98° East 184 212 3,600 -1,200 Descending FAA TRACON SMA TRACON (SMA)
08:11AM 39.8142 -75.5192 97° East 184 212 3,200 -900 Descending FAA TRACON SMA TRACON (SMA)
08:11AM 39.8169 -75.4922 82° East 200 230 3,000 -300 Descending FAA TRACON SMA TRACON (SMA)
08:11AM 39.8214 -75.4706 75° East 202 232 3,000 -300 Level FAA TRACON SMA TRACON (SMA)
08:12AM 39.8258 -75.4492 75° East 195 224 2,800 -900 Descending FAA TRACON SMA TRACON (SMA)
08:12AM 39.8311 -75.4236 75° East 198 228 2,400 -1,080 Descending FAA TRACON SMA TRACON (SMA)
08:12AM 39.8356 -75.4011 76° East 198 228 2,100 -900 Descending FAA TRACON SMA TRACON (SMA)
08:13AM 39.8397 -75.3806 75° East 195 224 1,800 -1,080 Descending FAA TRACON SMA TRACON (SMA)
08:13AM 39.8450 -75.3556 75° East 187 215 1,400 -900 Descending FAA TRACON SMA TRACON (SMA)
08:13AM 39.8486 -75.3367 76° East 169 194 1,200 -900 Descending FAA TRACON SMA TRACON (SMA)
08:14AM 39.8522 -75.3183 76° East 140 161 800 -900 Descending FAA TRACON SMA TRACON (SMA)
08:14AM 39.8550 -75.3042 76° East 130 150 600 -780 Descending FAA TRACON SMA TRACON (SMA)
08:14AM 39.8581 -75.2897 75° East 130 150 300 -780 Descending FAA TRACON SMA TRACON (SMA)
08:15AM 39.8600 -75.2794 76° East 131 151 100 -600 Descending FAA TRACON SMA TRACON (SMA)